sensor_id;sensor_type;location;lat;lon;timestamp;P1;durP1;ratioP1;P2;durP2;ratioP2
56233;SDS011;42141;53.240;6.580;2023-01-24T00:01:01;13.80;;;9.52;;
56233;SDS011;42141;53.240;6.580;2023-01-24T00:03:27;14.90;;;10.15;;
56233;SDS011;42141;53.240;6.580;2023-01-24T00:05:53;15.93;;;9.63;;
56233;SDS011;42141;53.240;6.580;2023-01-24T00:08:19;16.17;;;9.80;;
56233;SDS011;42141;53.240;6.580;2023-01-24T00:10:47;15.27;;;10.75;;
56233;SDS011;42141;53.240;6.580;2023-01-24T00:13:14;18.63;;;10.75;;
56233;SDS011;42141;53.240;6.580;2023-01-24T00:15:40;16.20;;;10.35;;
56233;SDS011;42141;53.240;6.580;2023-01-24T00:18:06;16.00;;;11.70;;
56233;SDS011;42141;53.240;6.580;2023-01-24T00:20:34;18.15;;;11.70;;
56233;SDS011;42141;53.240;6.580;2023-01-24T00:22:59;18.45;;;11.77;;
56233;SDS011;42141;53.240;6.580;2023-01-24T00:25:25;17.33;;;11.52;;
56233;SDS011;42141;53.240;6.580;2023-01-24T00:27:51;18.90;;;11.88;;
56233;SDS011;42141;53.240;6.580;2023-01-24T00:30:16;16.88;;;11.45;;
56233;SDS011;42141;53.240;6.580;2023-01-24T00:32:42;16.52;;;11.63;;
56233;SDS011;42141;53.240;6.580;2023-01-24T00:35:08;19.08;;;12.07;;
56233;SDS011;42141;53.240;6.580;2023-01-24T00:37:33;19.50;;;11.98;;
56233;SDS011;42141;53.240;6.580;2023-01-24T00:39:59;19.70;;;12.05;;
56233;SDS011;42141;53.240;6.580;2023-01-24T00:42:25;20.70;;;13.65;;
56233;SDS011;42141;53.240;6.580;2023-01-24T00:44:51;22.38;;;13.35;;
56233;SDS011;42141;53.240;6.580;2023-01-24T00:47:19;22.73;;;12.73;;
56233;SDS011;42141;53.240;6.580;2023-01-24T00:49:45;21.80;;;13.15;;
56233;SDS011;42141;53.240;6.580;2023-01-24T00:52:11;23.00;;;12.80;;
56233;SDS011;42141;53.240;6.580;2023-01-24T00:54:36;19.38;;;12.75;;
56233;SDS011;42141;53.240;6.580;2023-01-24T00:57:02;20.30;;;12.30;;
56233;SDS011;42141;53.240;6.580;2023-01-24T00:59:28;23.00;;;14.93;;
56233;SDS011;42141;53.240;6.580;2023-01-24T01:01:53;21.10;;;13.30;;
56233;SDS011;42141;53.240;6.580;2023-01-24T01:04:19;24.00;;;14.57;;
56233;SDS011;42141;53.240;6.580;2023-01-24T01:06:45;22.60;;;14.48;;
56233;SDS011;42141;53.240;6.580;2023-01-24T01:09:11;21.83;;;13.25;;
56233;SDS011;42141;53.240;6.580;2023-01-24T01:11:37;21.58;;;13.73;;
56233;SDS011;42141;53.240;6.580;2023-01-24T01:14:08;23.23;;;12.98;;
56233;SDS011;42141;53.240;6.580;2023-01-24T01:16:34;23.88;;;13.65;;
56233;SDS011;42141;53.240;6.580;2023-01-24T01:19:03;24.27;;;14.15;;
56233;SDS011;42141;53.240;6.580;2023-01-24T01:21:29;25.67;;;14.82;;
56233;SDS011;42141;53.240;6.580;2023-01-24T01:23:55;22.65;;;14.07;;
56233;SDS011;42141;53.240;6.580;2023-01-24T01:26:21;22.42;;;13.60;;
56233;SDS011;42141;53.240;6.580;2023-01-24T01:28:47;31.98;;;14.90;;
56233;SDS011;42141;53.240;6.580;2023-01-24T01:31:14;22.23;;;14.52;;
56233;SDS011;42141;53.240;6.580;2023-01-24T01:33:41;24.92;;;14.18;;
56233;SDS011;42141;53.240;6.580;2023-01-24T01:36:08;24.50;;;15.00;;
56233;SDS011;42141;53.240;6.580;2023-01-24T01:38:34;24.92;;;14.93;;
56233;SDS011;42141;53.240;6.580;2023-01-24T01:40:59;23.92;;;14.73;;
56233;SDS011;42141;53.240;6.580;2023-01-24T01:43:27;26.48;;;14.98;;
56233;SDS011;42141;53.240;6.580;2023-01-24T01:46:40;26.15;;;15.73;;
56233;SDS011;42141;53.240;6.580;2023-01-24T01:48:49;25.58;;;15.27;;
56233;SDS011;42141;53.240;6.580;2023-01-24T01:51:31;27.63;;;15.68;;
56233;SDS011;42141;53.240;6.580;2023-01-24T01:54:11;27.00;;;13.85;;
56233;SDS011;42141;53.240;6.580;2023-01-24T01:56:49;24.10;;;15.85;;
56233;SDS011;42141;53.240;6.580;2023-01-24T01:59:24;27.17;;;16.50;;
56233;SDS011;42141;53.240;6.580;2023-01-24T02:01:55;22.40;;;14.55;;
56233;SDS011;42141;53.240;6.580;2023-01-24T02:04:24;24.05;;;14.80;;
56233;SDS011;42141;53.240;6.580;2023-01-24T02:09:40;25.10;;;15.68;;
56233;SDS011;42141;53.240;6.580;2023-01-24T02:12:11;25.77;;;15.63;;
56233;SDS011;42141;53.240;6.580;2023-01-24T02:14:43;24.75;;;16.45;;
56233;SDS011;42141;53.240;6.580;2023-01-24T02:17:28;26.60;;;14.73;;
56233;SDS011;42141;53.240;6.580;2023-01-24T02:25:18;26.98;;;16.27;;
56233;SDS011;42141;53.240;6.580;2023-01-24T02:27:51;22.70;;;15.05;;
56233;SDS011;42141;53.240;6.580;2023-01-24T02:30:18;26.25;;;15.95;;
56233;SDS011;42141;53.240;6.580;2023-01-24T02:32:43;26.92;;;16.48;;
56233;SDS011;42141;53.240;6.580;2023-01-24T02:35:28;28.80;;;15.93;;
56233;SDS011;42141;53.240;6.580;2023-01-24T02:37:58;26.73;;;16.15;;
56233;SDS011;42141;53.240;6.580;2023-01-24T02:40:26;27.98;;;15.68;;
56233;SDS011;42141;53.240;6.580;2023-01-24T02:42:54;27.23;;;16.00;;
56233;SDS011;42141;53.240;6.580;2023-01-24T02:45:23;26.10;;;16.42;;
56233;SDS011;42141;53.240;6.580;2023-01-24T02:47:52;23.00;;;15.40;;
56233;SDS011;42141;53.240;6.580;2023-01-24T02:50:19;27.88;;;17.08;;
56233;SDS011;42141;53.240;6.580;2023-01-24T02:52:47;26.98;;;15.65;;
56233;SDS011;42141;53.240;6.580;2023-01-24T02:55:31;29.58;;;16.77;;
56233;SDS011;42141;53.240;6.580;2023-01-24T02:57:57;23.40;;;16.00;;
56233;SDS011;42141;53.240;6.580;2023-01-24T03:00:37;26.60;;;16.23;;
56233;SDS011;42141;53.240;6.580;2023-01-24T03:03:05;24.38;;;16.23;;
56233;SDS011;42141;53.240;6.580;2023-01-24T03:05:32;27.05;;;16.63;;
56233;SDS011;42141;53.240;6.580;2023-01-24T03:08:34;25.20;;;16.02;;
56233;SDS011;42141;53.240;6.580;2023-01-24T03:11:00;27.98;;;15.93;;
56233;SDS011;42141;53.240;6.580;2023-01-24T03:13:26;25.33;;;15.45;;
56233;SDS011;42141;53.240;6.580;2023-01-24T03:16:11;25.83;;;16.65;;
56233;SDS011;42141;53.240;6.580;2023-01-24T03:18:55;27.50;;;17.15;;
56233;SDS011;42141;53.240;6.580;2023-01-24T03:21:40;23.25;;;14.80;;
56233;SDS011;42141;53.240;6.580;2023-01-24T03:24:24;25.65;;;15.32;;
56233;SDS011;42141;53.240;6.580;2023-01-24T03:27:09;25.75;;;16.17;;
56233;SDS011;42141;53.240;6.580;2023-01-24T03:29:53;27.27;;;15.40;;
56233;SDS011;42141;53.240;6.580;2023-01-24T03:32:37;23.80;;;14.85;;
56233;SDS011;42141;53.240;6.580;2023-01-24T03:35:22;24.60;;;16.08;;
56233;SDS011;42141;53.240;6.580;2023-01-24T03:37:47;24.38;;;14.52;;
56233;SDS011;42141;53.240;6.580;2023-01-24T03:40:32;22.30;;;14.60;;
56233;SDS011;42141;53.240;6.580;2023-01-24T03:42:58;26.80;;;16.58;;
56233;SDS011;42141;53.240;6.580;2023-01-24T03:45:29;25.73;;;16.17;;
56233;SDS011;42141;53.240;6.580;2023-01-24T03:47:57;28.30;;;15.23;;
56233;SDS011;42141;53.240;6.580;2023-01-24T03:50:32;25.40;;;15.18;;
56233;SDS011;42141;53.240;6.580;2023-01-24T03:53:21;27.90;;;15.20;;
56233;SDS011;42141;53.240;6.580;2023-01-24T03:55:52;25.52;;;15.70;;
56233;SDS011;42141;53.240;6.580;2023-01-24T03:58:25;26.85;;;15.52;;
56233;SDS011;42141;53.240;6.580;2023-01-24T04:00:52;26.52;;;15.45;;
56233;SDS011;42141;53.240;6.580;2023-01-24T04:03:19;24.75;;;15.65;;
56233;SDS011;42141;53.240;6.580;2023-01-24T04:05:48;22.60;;;14.88;;
56233;SDS011;42141;53.240;6.580;2023-01-24T04:08:14;24.35;;;15.15;;
56233;SDS011;42141;53.240;6.580;2023-01-24T04:10:41;22.85;;;14.73;;
56233;SDS011;42141;53.240;6.580;2023-01-24T04:13:07;23.63;;;15.75;;
56233;SDS011;42141;53.240;6.580;2023-01-24T04:15:34;24.30;;;15.30;;
56233;SDS011;42141;53.240;6.580;2023-01-24T04:18:00;22.42;;;13.90;;
56233;SDS011;42141;53.240;6.580;2023-01-24T04:20:28;21.83;;;14.00;;
56233;SDS011;42141;53.240;6.580;2023-01-24T04:22:55;22.17;;;14.48;;
56233;SDS011;42141;53.240;6.580;2023-01-24T04:25:24;21.95;;;14.27;;
56233;SDS011;42141;53.240;6.580;2023-01-24T04:27:50;20.50;;;14.15;;
56233;SDS011;42141;53.240;6.580;2023-01-24T04:30:15;21.00;;;13.45;;
56233;SDS011;42141;53.240;6.580;2023-01-24T04:32:42;22.85;;;13.77;;
56233;SDS011;42141;53.240;6.580;2023-01-24T04:35:08;24.08;;;14.60;;
56233;SDS011;42141;53.240;6.580;2023-01-24T04:37:40;20.08;;;13.48;;
56233;SDS011;42141;53.240;6.580;2023-01-24T04:40:06;21.30;;;13.93;;
56233;SDS011;42141;53.240;6.580;2023-01-24T04:42:32;26.23;;;14.25;;
56233;SDS011;42141;53.240;6.580;2023-01-24T04:44:58;25.90;;;14.00;;
56233;SDS011;42141;53.240;6.580;2023-01-24T04:47:24;22.63;;;13.48;;
56233;SDS011;42141;53.240;6.580;2023-01-24T04:49:49;20.45;;;12.95;;
56233;SDS011;42141;53.240;6.580;2023-01-24T04:52:15;18.27;;;11.10;;
56233;SDS011;42141;53.240;6.580;2023-01-24T04:54:41;17.40;;;11.52;;
56233;SDS011;42141;53.240;6.580;2023-01-24T04:57:07;19.80;;;12.30;;
56233;SDS011;42141;53.240;6.580;2023-01-24T04:59:36;18.85;;;12.10;;
56233;SDS011;42141;53.240;6.580;2023-01-24T05:02:01;17.27;;;12.48;;
56233;SDS011;42141;53.240;6.580;2023-01-24T05:04:27;20.08;;;12.07;;
56233;SDS011;42141;53.240;6.580;2023-01-24T05:06:53;20.52;;;12.20;;
56233;SDS011;42141;53.240;6.580;2023-01-24T05:09:19;19.42;;;12.27;;
56233;SDS011;42141;53.240;6.580;2023-01-24T05:11:44;15.32;;;11.00;;
56233;SDS011;42141;53.240;6.580;2023-01-24T05:14:10;15.50;;;12.15;;
56233;SDS011;42141;53.240;6.580;2023-01-24T05:16:36;15.30;;;11.23;;
56233;SDS011;42141;53.240;6.580;2023-01-24T05:19:02;14.30;;;10.10;;
56233;SDS011;42141;53.240;6.580;2023-01-24T05:21:29;15.60;;;10.23;;
56233;SDS011;42141;53.240;6.580;2023-01-24T05:23:55;15.98;;;10.65;;
56233;SDS011;42141;53.240;6.580;2023-01-24T05:26:21;15.45;;;10.35;;
56233;SDS011;42141;53.240;6.580;2023-01-24T05:28:49;15.82;;;10.00;;
56233;SDS011;42141;53.240;6.580;2023-01-24T05:31:16;16.40;;;10.73;;
56233;SDS011;42141;53.240;6.580;2023-01-24T05:33:42;18.88;;;11.63;;
56233;SDS011;42141;53.240;6.580;2023-01-24T05:36:09;16.27;;;11.10;;
56233;SDS011;42141;53.240;6.580;2023-01-24T05:38:45;17.23;;;11.65;;
56233;SDS011;42141;53.240;6.580;2023-01-24T05:41:13;20.20;;;12.07;;
56233;SDS011;42141;53.240;6.580;2023-01-24T05:43:43;17.00;;;10.85;;
56233;SDS011;42141;53.240;6.580;2023-01-24T05:46:12;17.15;;;11.82;;
56233;SDS011;42141;53.240;6.580;2023-01-24T05:48:43;15.88;;;11.65;;
56233;SDS011;42141;53.240;6.580;2023-01-24T05:51:11;17.95;;;12.88;;
56233;SDS011;42141;53.240;6.580;2023-01-24T05:53:39;20.60;;;13.00;;
56233;SDS011;42141;53.240;6.580;2023-01-24T05:56:07;18.35;;;11.77;;
56233;SDS011;42141;53.240;6.580;2023-01-24T05:58:38;21.37;;;12.60;;
56233;SDS011;42141;53.240;6.580;2023-01-24T06:01:13;19.13;;;11.23;;
56233;SDS011;42141;53.240;6.580;2023-01-24T06:03:41;19.20;;;12.10;;
56233;SDS011;42141;53.240;6.580;2023-01-24T06:06:09;19.00;;;12.40;;
56233;SDS011;42141;53.240;6.580;2023-01-24T06:08:36;20.85;;;12.93;;
56233;SDS011;42141;53.240;6.580;2023-01-24T06:11:03;19.40;;;12.77;;
56233;SDS011;42141;53.240;6.580;2023-01-24T06:13:34;21.73;;;12.10;;
56233;SDS011;42141;53.240;6.580;2023-01-24T06:16:01;20.13;;;12.80;;
56233;SDS011;42141;53.240;6.580;2023-01-24T06:18:28;19.48;;;11.77;;
56233;SDS011;42141;53.240;6.580;2023-01-24T06:20:54;16.70;;;11.70;;
56233;SDS011;42141;53.240;6.580;2023-01-24T06:23:25;17.35;;;12.02;;
56233;SDS011;42141;53.240;6.580;2023-01-24T06:25:52;16.40;;;11.07;;
56233;SDS011;42141;53.240;6.580;2023-01-24T06:28:18;22.08;;;13.45;;
56233;SDS011;42141;53.240;6.580;2023-01-24T06:30:46;19.13;;;12.90;;
56233;SDS011;42141;53.240;6.580;2023-01-24T06:33:32;21.35;;;14.00;;
56233;SDS011;42141;53.240;6.580;2023-01-24T06:38:46;21.35;;;13.82;;
56233;SDS011;42141;53.240;6.580;2023-01-24T06:41:16;20.67;;;12.80;;
56233;SDS011;42141;53.240;6.580;2023-01-24T06:43:42;21.98;;;13.23;;
56233;SDS011;42141;53.240;6.580;2023-01-24T06:46:09;19.67;;;13.10;;
56233;SDS011;42141;53.240;6.580;2023-01-24T06:48:36;21.73;;;13.55;;
56233;SDS011;42141;53.240;6.580;2023-01-24T06:51:02;25.55;;;14.25;;
56233;SDS011;42141;53.240;6.580;2023-01-24T06:53:28;21.70;;;12.35;;
56233;SDS011;42141;53.240;6.580;2023-01-24T06:55:54;23.38;;;15.02;;
56233;SDS011;42141;53.240;6.580;2023-01-24T06:58:19;21.65;;;13.30;;
56233;SDS011;42141;53.240;6.580;2023-01-24T07:00:45;21.33;;;13.68;;
56233;SDS011;42141;53.240;6.580;2023-01-24T07:03:11;21.08;;;13.05;;
56233;SDS011;42141;53.240;6.580;2023-01-24T07:05:37;26.58;;;14.32;;
56233;SDS011;42141;53.240;6.580;2023-01-24T07:08:04;23.08;;;14.32;;
56233;SDS011;42141;53.240;6.580;2023-01-24T07:10:30;22.98;;;14.55;;
56233;SDS011;42141;53.240;6.580;2023-01-24T07:12:56;20.40;;;13.05;;
56233;SDS011;42141;53.240;6.580;2023-01-24T07:15:22;21.75;;;13.68;;
56233;SDS011;42141;53.240;6.580;2023-01-24T07:17:48;22.70;;;13.55;;
56233;SDS011;42141;53.240;6.580;2023-01-24T07:20:14;21.10;;;12.77;;
56233;SDS011;42141;53.240;6.580;2023-01-24T07:22:40;20.23;;;12.70;;
56233;SDS011;42141;53.240;6.580;2023-01-24T07:25:14;22.05;;;13.30;;
56233;SDS011;42141;53.240;6.580;2023-01-24T07:27:42;19.98;;;13.10;;
56233;SDS011;42141;53.240;6.580;2023-01-24T07:30:09;23.88;;;14.23;;
56233;SDS011;42141;53.240;6.580;2023-01-24T07:32:36;20.73;;;13.70;;
56233;SDS011;42141;53.240;6.580;2023-01-24T07:35:02;23.23;;;12.80;;
56233;SDS011;42141;53.240;6.580;2023-01-24T07:37:29;17.48;;;12.00;;
56233;SDS011;42141;53.240;6.580;2023-01-24T07:39:54;19.23;;;11.52;;
56233;SDS011;42141;53.240;6.580;2023-01-24T07:42:20;18.20;;;10.38;;
56233;SDS011;42141;53.240;6.580;2023-01-24T07:44:46;18.08;;;11.13;;
56233;SDS011;42141;53.240;6.580;2023-01-24T07:47:11;15.00;;;10.20;;
56233;SDS011;42141;53.240;6.580;2023-01-24T07:49:37;16.55;;;10.43;;
56233;SDS011;42141;53.240;6.580;2023-01-24T07:52:03;15.10;;;10.07;;
56233;SDS011;42141;53.240;6.580;2023-01-24T07:54:28;16.92;;;9.52;;
56233;SDS011;42141;53.240;6.580;2023-01-24T07:56:54;16.55;;;10.98;;
56233;SDS011;42141;53.240;6.580;2023-01-24T07:59:20;18.60;;;10.73;;
56233;SDS011;42141;53.240;6.580;2023-01-24T08:01:46;15.82;;;9.85;;
56233;SDS011;42141;53.240;6.580;2023-01-24T08:04:11;15.50;;;9.73;;
56233;SDS011;42141;53.240;6.580;2023-01-24T08:06:43;14.57;;;9.32;;
56233;SDS011;42141;53.240;6.580;2023-01-24T08:09:28;14.27;;;8.82;;
56233;SDS011;42141;53.240;6.580;2023-01-24T08:11:54;15.20;;;9.80;;
56233;SDS011;42141;53.240;6.580;2023-01-24T08:14:21;13.52;;;9.02;;
56233;SDS011;42141;53.240;6.580;2023-01-24T08:16:47;12.48;;;9.00;;
56233;SDS011;42141;53.240;6.580;2023-01-24T08:19:13;12.55;;;8.98;;
56233;SDS011;42141;53.240;6.580;2023-01-24T08:21:39;14.80;;;8.68;;
56233;SDS011;42141;53.240;6.580;2023-01-24T08:24:08;15.35;;;9.50;;
56233;SDS011;42141;53.240;6.580;2023-01-24T08:26:34;14.18;;;8.98;;
56233;SDS011;42141;53.240;6.580;2023-01-24T08:28:59;15.18;;;9.60;;
56233;SDS011;42141;53.240;6.580;2023-01-24T08:31:25;13.10;;;8.55;;
56233;SDS011;42141;53.240;6.580;2023-01-24T08:33:51;13.63;;;8.20;;
56233;SDS011;42141;53.240;6.580;2023-01-24T08:36:17;14.70;;;8.82;;
56233;SDS011;42141;53.240;6.580;2023-01-24T08:38:47;13.77;;;9.10;;
56233;SDS011;42141;53.240;6.580;2023-01-24T08:41:12;12.90;;;7.93;;
56233;SDS011;42141;53.240;6.580;2023-01-24T08:43:38;13.48;;;8.55;;
56233;SDS011;42141;53.240;6.580;2023-01-24T08:46:04;13.27;;;8.38;;
56233;SDS011;42141;53.240;6.580;2023-01-24T08:48:29;13.05;;;8.32;;
56233;SDS011;42141;53.240;6.580;2023-01-24T08:50:56;15.93;;;8.52;;
56233;SDS011;42141;53.240;6.580;2023-01-24T08:53:22;14.65;;;8.35;;
56233;SDS011;42141;53.240;6.580;2023-01-24T08:55:48;13.18;;;8.15;;
56233;SDS011;42141;53.240;6.580;2023-01-24T08:58:15;12.68;;;8.63;;
56233;SDS011;42141;53.240;6.580;2023-01-24T09:00:41;11.90;;;8.18;;
56233;SDS011;42141;53.240;6.580;2023-01-24T09:03:08;16.15;;;8.65;;
56233;SDS011;42141;53.240;6.580;2023-01-24T09:05:35;11.50;;;7.63;;
56233;SDS011;42141;53.240;6.580;2023-01-24T09:08:03;13.07;;;8.60;;
56233;SDS011;42141;53.240;6.580;2023-01-24T09:10:29;12.85;;;8.23;;
56233;SDS011;42141;53.240;6.580;2023-01-24T09:12:55;15.43;;;9.15;;
56233;SDS011;42141;53.240;6.580;2023-01-24T09:15:21;13.98;;;8.52;;
56233;SDS011;42141;53.240;6.580;2023-01-24T09:17:47;14.90;;;8.82;;
56233;SDS011;42141;53.240;6.580;2023-01-24T09:20:13;12.30;;;8.25;;
56233;SDS011;42141;53.240;6.580;2023-01-24T09:22:39;13.88;;;8.75;;
56233;SDS011;42141;53.240;6.580;2023-01-24T09:25:05;12.95;;;8.65;;
56233;SDS011;42141;53.240;6.580;2023-01-24T09:27:33;13.77;;;8.32;;
56233;SDS011;42141;53.240;6.580;2023-01-24T09:29:59;12.82;;;7.38;;
56233;SDS011;42141;53.240;6.580;2023-01-24T09:32:24;11.45;;;8.18;;
56233;SDS011;42141;53.240;6.580;2023-01-24T09:34:50;13.23;;;7.75;;
56233;SDS011;42141;53.240;6.580;2023-01-24T09:37:19;11.75;;;7.40;;
56233;SDS011;42141;53.240;6.580;2023-01-24T09:39:46;10.93;;;7.40;;
56233;SDS011;42141;53.240;6.580;2023-01-24T09:45:03;12.65;;;7.65;;
56233;SDS011;42141;53.240;6.580;2023-01-24T09:47:51;12.05;;;8.10;;
56233;SDS011;42141;53.240;6.580;2023-01-24T09:53:03;13.43;;;7.32;;
56233;SDS011;42141;53.240;6.580;2023-01-24T09:55:31;11.15;;;7.57;;
56233;SDS011;42141;53.240;6.580;2023-01-24T09:58:06;10.20;;;6.43;;
56233;SDS011;42141;53.240;6.580;2023-01-24T10:01:08;12.27;;;7.70;;
56233;SDS011;42141;53.240;6.580;2023-01-24T10:03:39;12.15;;;7.75;;
56233;SDS011;42141;53.240;6.580;2023-01-24T10:06:08;10.82;;;7.82;;
56233;SDS011;42141;53.240;6.580;2023-01-24T10:11:20;10.13;;;6.60;;
56233;SDS011;42141;53.240;6.580;2023-01-24T10:14:08;10.85;;;6.88;;
56233;SDS011;42141;53.240;6.580;2023-01-24T10:25:18;10.60;;;6.70;;
56233;SDS011;42141;53.240;6.580;2023-01-24T10:27:55;11.55;;;7.32;;
56233;SDS011;42141;53.240;6.580;2023-01-24T10:33:09;11.70;;;7.15;;
56233;SDS011;42141;53.240;6.580;2023-01-24T10:35:55;10.55;;;7.10;;
56233;SDS011;42141;53.240;6.580;2023-01-24T10:38:23;14.68;;;7.22;;
56233;SDS011;42141;53.240;6.580;2023-01-24T10:40:51;11.02;;;7.20;;
56233;SDS011;42141;53.240;6.580;2023-01-24T10:43:25;11.63;;;7.95;;
56233;SDS011;42141;53.240;6.580;2023-01-24T10:51:11;10.32;;;7.03;;
56233;SDS011;42141;53.240;6.580;2023-01-24T10:53:39;11.93;;;7.68;;
56233;SDS011;42141;53.240;6.580;2023-01-24T10:56:05;11.02;;;7.38;;
56233;SDS011;42141;53.240;6.580;2023-01-24T11:01:36;9.90;;;6.85;;
56233;SDS011;42141;53.240;6.580;2023-01-24T11:04:20;11.48;;;7.78;;
56233;SDS011;42141;53.240;6.580;2023-01-24T11:06:46;10.48;;;7.47;;
56233;SDS011;42141;53.240;6.580;2023-01-24T11:09:21;11.65;;;7.45;;
56233;SDS011;42141;53.240;6.580;2023-01-24T11:11:58;10.52;;;7.47;;
56233;SDS011;42141;53.240;6.580;2023-01-24T11:14:28;11.02;;;7.43;;
56233;SDS011;42141;53.240;6.580;2023-01-24T11:17:00;13.77;;;7.43;;
56233;SDS011;42141;53.240;6.580;2023-01-24T11:19:30;12.90;;;7.15;;
56233;SDS011;42141;53.240;6.580;2023-01-24T11:22:02;14.50;;;7.32;;
56233;SDS011;42141;53.240;6.580;2023-01-24T11:24:45;12.38;;;7.47;;
56233;SDS011;42141;53.240;6.580;2023-01-24T11:27:17;10.70;;;7.45;;
56233;SDS011;42141;53.240;6.580;2023-01-24T11:29:45;11.07;;;7.25;;
56233;SDS011;42141;53.240;6.580;2023-01-24T11:40:25;11.52;;;7.50;;
56233;SDS011;42141;53.240;6.580;2023-01-24T11:51:46;13.48;;;7.85;;
56233;SDS011;42141;53.240;6.580;2023-01-24T11:57:02;11.73;;;7.35;;
56233;SDS011;42141;53.240;6.580;2023-01-24T12:08:53;15.38;;;8.25;;
56233;SDS011;42141;53.240;6.580;2023-01-24T12:11:25;12.05;;;8.02;;
56233;SDS011;42141;53.240;6.580;2023-01-24T12:21:53;13.45;;;8.10;;
56233;SDS011;42141;53.240;6.580;2023-01-24T12:24:22;13.40;;;8.32;;
56233;SDS011;42141;53.240;6.580;2023-01-24T12:27:04;14.17;;;6.03;;
56233;SDS011;42141;53.240;6.580;2023-01-24T12:29:42;14.05;;;8.57;;
56233;SDS011;42141;53.240;6.580;2023-01-24T12:37:31;14.52;;;8.80;;
56233;SDS011;42141;53.240;6.580;2023-01-24T12:40:15;14.48;;;8.85;;
56233;SDS011;42141;53.240;6.580;2023-01-24T12:43:00;13.52;;;8.52;;
56233;SDS011;42141;53.240;6.580;2023-01-24T12:45:38;13.60;;;8.75;;
56233;SDS011;42141;53.240;6.580;2023-01-24T12:48:22;14.40;;;8.77;;
56233;SDS011;42141;53.240;6.580;2023-01-24T12:51:13;13.88;;;8.90;;
56233;SDS011;42141;53.240;6.580;2023-01-24T12:59:23;14.07;;;9.15;;
56233;SDS011;42141;53.240;6.580;2023-01-24T13:05:07;14.73;;;9.60;;
56233;SDS011;42141;53.240;6.580;2023-01-24T13:07:53;11.90;;;8.50;;
56233;SDS011;42141;53.240;6.580;2023-01-24T13:13:29;14.02;;;8.77;;
56233;SDS011;42141;53.240;6.580;2023-01-24T13:16:26;12.98;;;9.07;;
56233;SDS011;42141;53.240;6.580;2023-01-24T13:21:52;13.85;;;9.45;;
56233;SDS011;42141;53.240;6.580;2023-01-24T13:24:46;15.10;;;9.40;;
56233;SDS011;42141;53.240;6.580;2023-01-24T13:27:53;14.77;;;8.85;;
56233;SDS011;42141;53.240;6.580;2023-01-24T13:33:15;12.98;;;9.38;;
56233;SDS011;42141;53.240;6.580;2023-01-24T13:35:50;13.75;;;9.20;;
56233;SDS011;42141;53.240;6.580;2023-01-24T13:38:24;15.88;;;10.27;;
56233;SDS011;42141;53.240;6.580;2023-01-24T13:41:04;13.88;;;9.05;;
56233;SDS011;42141;53.240;6.580;2023-01-24T13:47:03;14.65;;;9.35;;
56233;SDS011;42141;53.240;6.580;2023-01-24T13:51:54;16.13;;;9.48;;
56233;SDS011;42141;53.240;6.580;2023-01-24T14:07:52;14.00;;;8.80;;
56233;SDS011;42141;53.240;6.580;2023-01-24T14:10:39;13.88;;;9.57;;
56233;SDS011;42141;53.240;6.580;2023-01-24T14:16:09;16.30;;;10.50;;
56233;SDS011;42141;53.240;6.580;2023-01-24T14:18:40;16.13;;;10.00;;
56233;SDS011;42141;53.240;6.580;2023-01-24T14:21:16;17.00;;;10.45;;
56233;SDS011;42141;53.240;6.580;2023-01-24T14:23:44;18.63;;;11.60;;
56233;SDS011;42141;53.240;6.580;2023-01-24T14:26:14;17.80;;;10.18;;
56233;SDS011;42141;53.240;6.580;2023-01-24T14:28:43;16.52;;;10.38;;
56233;SDS011;42141;53.240;6.580;2023-01-24T14:34:16;18.13;;;10.63;;
56233;SDS011;42141;53.240;6.580;2023-01-24T14:36:47;19.40;;;11.68;;
56233;SDS011;42141;53.240;6.580;2023-01-24T14:39:23;21.35;;;10.23;;
56233;SDS011;42141;53.240;6.580;2023-01-24T14:49:33;17.58;;;10.15;;
56233;SDS011;42141;53.240;6.580;2023-01-24T14:52:01;16.33;;;10.38;;
56233;SDS011;42141;53.240;6.580;2023-01-24T14:54:43;17.73;;;10.88;;
56233;SDS011;42141;53.240;6.580;2023-01-24T14:57:24;16.80;;;10.90;;
56233;SDS011;42141;53.240;6.580;2023-01-24T15:02:39;16.80;;;11.05;;
56233;SDS011;42141;53.240;6.580;2023-01-24T15:05:29;17.38;;;11.90;;
56233;SDS011;42141;53.240;6.580;2023-01-24T15:08:05;17.98;;;11.55;;
56233;SDS011;42141;53.240;6.580;2023-01-24T15:10:38;19.80;;;12.15;;
56233;SDS011;42141;53.240;6.580;2023-01-24T15:13:11;17.48;;;10.95;;
56233;SDS011;42141;53.240;6.580;2023-01-24T15:15:50;17.92;;;11.73;;
56233;SDS011;42141;53.240;6.580;2023-01-24T15:18:50;19.67;;;12.38;;
56233;SDS011;42141;53.240;6.580;2023-01-24T15:24:29;18.40;;;11.70;;
56233;SDS011;42141;53.240;6.580;2023-01-24T15:26:56;16.90;;;11.27;;
56233;SDS011;42141;53.240;6.580;2023-01-24T15:32:26;21.20;;;12.90;;
56233;SDS011;42141;53.240;6.580;2023-01-24T15:35:11;22.25;;;12.98;;
56233;SDS011;42141;53.240;6.580;2023-01-24T15:37:36;22.65;;;13.88;;
56233;SDS011;42141;53.240;6.580;2023-01-24T15:40:02;17.08;;;12.32;;
56233;SDS011;42141;53.240;6.580;2023-01-24T15:42:28;17.58;;;11.77;;
56233;SDS011;42141;53.240;6.580;2023-01-24T15:45:16;21.60;;;13.25;;
56233;SDS011;42141;53.240;6.580;2023-01-24T15:47:43;20.55;;;13.77;;
56233;SDS011;42141;53.240;6.580;2023-01-24T15:53:10;23.00;;;14.95;;
56233;SDS011;42141;53.240;6.580;2023-01-24T15:55:44;21.30;;;13.55;;
56233;SDS011;42141;53.240;6.580;2023-01-24T15:58:10;22.33;;;12.50;;
56233;SDS011;42141;53.240;6.580;2023-01-24T16:00:36;19.42;;;12.70;;
56233;SDS011;42141;53.240;6.580;2023-01-24T16:03:02;18.98;;;12.88;;
56233;SDS011;42141;53.240;6.580;2023-01-24T16:05:28;19.50;;;12.55;;
56233;SDS011;42141;53.240;6.580;2023-01-24T16:07:54;20.05;;;12.90;;
56233;SDS011;42141;53.240;6.580;2023-01-24T16:10:20;19.77;;;12.00;;
56233;SDS011;42141;53.240;6.580;2023-01-24T16:12:46;17.50;;;12.02;;
56233;SDS011;42141;53.240;6.580;2023-01-24T16:15:16;16.10;;;11.48;;
56233;SDS011;42141;53.240;6.580;2023-01-24T16:17:43;21.45;;;12.73;;
56233;SDS011;42141;53.240;6.580;2023-01-24T16:20:16;19.65;;;13.07;;
56233;SDS011;42141;53.240;6.580;2023-01-24T16:22:49;19.73;;;12.93;;
56233;SDS011;42141;53.240;6.580;2023-01-24T16:25:16;22.88;;;14.02;;
56233;SDS011;42141;53.240;6.580;2023-01-24T16:27:42;24.05;;;13.85;;
56233;SDS011;42141;53.240;6.580;2023-01-24T16:30:18;22.90;;;14.10;;
56233;SDS011;42141;53.240;6.580;2023-01-24T16:32:47;29.70;;;14.75;;
56233;SDS011;42141;53.240;6.580;2023-01-24T16:35:14;21.70;;;15.18;;
56233;SDS011;42141;53.240;6.580;2023-01-24T16:37:39;23.10;;;15.82;;
56233;SDS011;42141;53.240;6.580;2023-01-24T16:40:08;20.92;;;15.00;;
56233;SDS011;42141;53.240;6.580;2023-01-24T16:42:37;21.73;;;14.43;;
56233;SDS011;42141;53.240;6.580;2023-01-24T16:45:04;20.15;;;15.02;;
56233;SDS011;42141;53.240;6.580;2023-01-24T16:47:30;20.38;;;14.25;;
56233;SDS011;42141;53.240;6.580;2023-01-24T16:49:57;21.02;;;14.27;;
56233;SDS011;42141;53.240;6.580;2023-01-24T16:52:24;21.98;;;15.02;;
56233;SDS011;42141;53.240;6.580;2023-01-24T16:54:51;18.83;;;13.00;;
56233;SDS011;42141;53.240;6.580;2023-01-24T16:57:17;21.77;;;14.63;;
56233;SDS011;42141;53.240;6.580;2023-01-24T16:59:43;22.65;;;13.68;;
56233;SDS011;42141;53.240;6.580;2023-01-24T17:02:09;21.38;;;14.98;;
56233;SDS011;42141;53.240;6.580;2023-01-24T17:04:35;23.50;;;15.57;;
56233;SDS011;42141;53.240;6.580;2023-01-24T17:07:01;19.80;;;14.23;;